Time;durP1;ratioP1;P1;durP2;ratioP2;P2;SDS_P1;SDS_P2;PMS_P1;PMS_P2;Temp;Humidity;BMP_temperature;BMP_pressure;BME280_temperature;BME280_humidity;BME280_pressure;Samples;Min_cycle;Max_cycle;Signal;HPM_P1;HPM_P2
2021/08/11 00:00:31;;;;;;;20.40;12.77;;;;;;;;;;5011322;28;20576;-70
2021/08/11 00:02:56;;;;;;;22.92;13.30;;;;;;;;;;5021727;28;20210;-70
2021/08/11 00:05:22;;;;;;;21.38;13.65;;;;;;;;;;5011586;28;20194;-70
2021/08/11 00:07:47;;;;;;;24.95;14.75;;;;;;;;;;5021695;28;20585;-70
2021/08/11 00:10:12;;;;;;;21.35;13.45;;;;;;;;;;5018129;28;20237;-70
2021/08/11 00:12:38;;;;;;;24.42;12.85;;;;;;;;;;5018629;28;20255;-70
2021/08/11 00:15:04;;;;;;;20.13;13.55;;;;;;;;;;5019304;28;20186;-70
2021/08/11 00:17:29;;;;;;;17.83;13.18;;;;;;;;;;5017975;28;20186;-70
2021/08/11 00:19:55;;;;;;;18.75;11.85;;;;;;;;;;5021320;28;20264;-70
2021/08/11 00:22:20;;;;;;;22.73;11.15;;;;;;;;;;5014503;28;20548;-70
2021/08/11 00:24:46;;;;;;;18.30;12.23;;;;;;;;;;5012454;28;20189;-70
2021/08/11 00:27:11;;;;;;;15.02;11.50;;;;;;;;;;5013306;28;20194;-69
2021/08/11 00:29:36;;;;;;;19.40;12.07;;;;;;;;;;5016163;28;20236;-70
2021/08/11 00:32:02;;;;;;;20.70;12.60;;;;;;;;;;5008603;28;20190;-69
2021/08/11 00:34:28;;;;;;;21.90;12.27;;;;;;;;;;5022229;28;20201;-69
2021/08/11 00:36:54;;;;;;;16.33;12.13;;;;;;;;;;5011578;28;20194;-69
2021/08/11 00:39:20;;;;;;;17.92;12.07;;;;;;;;;;5014711;28;20190;-70
2021/08/11 00:41:45;;;;;;;18.60;12.50;;;;;;;;;;5022453;28;20186;-69
2021/08/11 00:44:12;;;;;;;17.17;12.02;;;;;;;;;;5011516;28;20213;-69
2021/08/11 00:46:41;;;;;;;16.33;12.65;;;;;;;;;;5035061;28;20185;-69
2021/08/11 00:49:10;;;;;;;18.40;13.35;;;;;;;;;;5010228;28;20198;-69
2021/08/11 00:51:35;;;;;;;15.82;12.07;;;;;;;;;;5024102;28;20209;-70
2021/08/11 00:54:04;;;;;;;16.40;12.10;;;;;;;;;;5011959;28;20238;-70
2021/08/11 00:56:29;;;;;;;16.17;11.82;;;;;;;;;;5027693;28;20204;-69
2021/08/11 00:58:55;;;;;;;20.05;13.00;;;;;;;;;;5012980;28;20217;-69
2021/08/11 01:01:22;;;;;;;20.10;12.45;;;;;;;;;;4986436;28;1034371;-70
2021/08/11 01:03:48;;;;;;;19.20;12.90;;;;;;;;;;5013995;28;20654;-69
2021/08/11 01:06:14;;;;;;;18.13;12.30;;;;;;;;;;5026245;28;20190;-69
2021/08/11 01:08:41;;;;;;;20.85;13.05;;;;;;;;;;5012594;28;20236;-69
2021/08/11 01:11:07;;;;;;;18.75;12.70;;;;;;;;;;5024426;28;20556;-70
2021/08/11 01:13:33;;;;;;;20.63;13.30;;;;;;;;;;5020085;28;20182;-70
2021/08/11 01:15:58;;;;;;;20.23;13.48;;;;;;;;;;5021329;28;20189;-70
2021/08/11 01:18:23;;;;;;;19.92;13.57;;;;;;;;;;5035544;28;20186;-70
2021/08/11 01:21:02;;;;;;;19.23;13.38;;;;;;;;;;5013079;28;20271;-70
2021/08/11 01:23:46;;;;;;;20.20;13.32;;;;;;;;;;5020157;28;20274;-70
2021/08/11 01:26:28;;;;;;;20.75;13.63;;;;;;;;;;5013817;28;20591;-70
2021/08/11 01:29:18;;;;;;;17.83;12.30;;;;;;;;;;5024880;28;20190;-70
2021/08/11 01:31:47;;;;;;;18.75;12.05;;;;;;;;;;5013577;28;20206;-70
2021/08/11 01:34:51;;;;;;;17.55;12.65;;;;;;;;;;5024001;28;20186;-70
2021/08/11 01:37:23;;;;;;;14.68;11.48;;;;;;;;;;5042690;28;20193;-70
2021/08/11 01:39:53;;;;;;;16.00;11.65;;;;;;;;;;5024869;28;20202;-70
2021/08/11 01:42:38;;;;;;;18.27;11.55;;;;;;;;;;5009618;28;20182;-70
2021/08/11 01:45:12;;;;;;;17.75;11.80;;;;;;;;;;5022479;28;20189;-70
2021/08/11 01:47:49;;;;;;;21.17;12.52;;;;;;;;;;5013931;28;20194;-70
2021/08/11 01:50:17;;;;;;;16.38;11.85;;;;;;;;;;5019807;28;20190;-70
2021/08/11 01:52:45;;;;;;;17.67;12.75;;;;;;;;;;5014065;28;20182;-70
2021/08/11 01:55:11;;;;;;;19.25;12.07;;;;;;;;;;5021068;28;20194;-70
2021/08/11 01:57:39;;;;;;;14.85;12.25;;;;;;;;;;5019120;28;20661;-70
2021/08/11 02:00:06;;;;;;;20.58;12.88;;;;;;;;;;5018240;28;20233;-70
2021/08/11 02:02:32;;;;;;;20.30;14.05;;;;;;;;;;5017065;28;20209;-70
2021/08/11 02:04:58;;;;;;;17.27;12.50;;;;;;;;;;5021491;28;20194;-70
2021/08/11 02:07:24;;;;;;;18.25;12.32;;;;;;;;;;5021586;28;20183;-70
2021/08/11 02:09:49;;;;;;;18.30;13.98;;;;;;;;;;5019344;28;20187;-69
2021/08/11 02:12:15;;;;;;;23.20;14.07;;;;;;;;;;5022354;28;20186;-69
2021/08/11 02:14:41;;;;;;;18.27;13.10;;;;;;;;;;5027138;28;20238;-69
2021/08/11 02:17:06;;;;;;;16.20;12.70;;;;;;;;;;5020278;28;20177;-69
2021/08/11 02:19:32;;;;;;;17.17;12.02;;;;;;;;;;5023714;28;20218;-69
2021/08/11 02:21:58;;;;;;;21.52;12.13;;;;;;;;;;5029338;28;20178;-69
2021/08/11 02:24:23;;;;;;;21.42;12.25;;;;;;;;;;5013467;28;20626;-69
2021/08/11 02:27:04;;;;;;;18.10;11.77;;;;;;;;;;5030021;28;20190;-69
2021/08/11 02:29:44;;;;;;;16.60;11.80;;;;;;;;;;5011660;28;20194;-69
2021/08/11 02:32:22;;;;;;;14.50;11.15;;;;;;;;;;5029507;28;20182;-69
2021/08/11 02:34:56;;;;;;;16.67;11.25;;;;;;;;;;5016634;28;20272;-69
2021/08/11 02:37:29;;;;;;;15.63;11.70;;;;;;;;;;5025789;28;20563;-69
2021/08/11 02:40:06;;;;;;;13.70;10.98;;;;;;;;;;5015679;28;20183;-69
2021/08/11 02:42:37;;;;;;;15.82;11.68;;;;;;;;;;5025475;28;20247;-69
2021/08/11 02:45:05;;;;;;;18.27;11.68;;;;;;;;;;5015264;28;20674;-69
2021/08/11 02:47:35;;;;;;;17.17;12.32;;;;;;;;;;5026860;28;20193;-69
2021/08/11 02:50:00;;;;;;;16.30;11.77;;;;;;;;;;5016300;28;20206;-69
2021/08/11 02:52:26;;;;;;;16.50;11.98;;;;;;;;;;5020878;28;20295;-69
2021/08/11 02:54:53;;;;;;;16.35;12.40;;;;;;;;;;5015282;28;20189;-69
2021/08/11 02:57:18;;;;;;;17.10;11.45;;;;;;;;;;5014417;28;20240;-69
2021/08/11 02:59:44;;;;;;;20.45;11.90;;;;;;;;;;5017931;28;20245;-69
2021/08/11 03:02:10;;;;;;;18.05;11.57;;;;;;;;;;5020407;28;20718;-69
2021/08/11 03:04:35;;;;;;;16.42;12.07;;;;;;;;;;5020260;28;20716;-69
2021/08/11 03:07:01;;;;;;;19.98;13.45;;;;;;;;;;5021374;28;20190;-69
2021/08/11 03:09:27;;;;;;;19.42;12.95;;;;;;;;;;5023805;28;20622;-69
2021/08/11 03:11:53;;;;;;;18.88;13.30;;;;;;;;;;5014356;28;20198;-69
2021/08/11 03:14:20;;;;;;;19.58;13.48;;;;;;;;;;5021586;28;20174;-69
2021/08/11 03:16:46;;;;;;;17.20;12.73;;;;;;;;;;5013572;28;20317;-69
2021/08/11 03:19:11;;;;;;;17.73;12.27;;;;;;;;;;5016785;28;20305;-69
2021/08/11 03:21:37;;;;;;;19.55;13.35;;;;;;;;;;5011080;28;20190;-69
2021/08/11 03:24:03;;;;;;;20.77;13.18;;;;;;;;;;5024371;28;20194;-70
2021/08/11 03:26:28;;;;;;;20.73;12.77;;;;;;;;;;5009183;28;20213;-70
2021/08/11 03:28:59;;;;;;;18.52;12.07;;;;;;;;;;5036256;28;20201;-70
2021/08/11 03:31:26;;;;;;;17.50;12.63;;;;;;;;;;5015172;28;20186;-70
2021/08/11 03:33:51;;;;;;;19.92;12.85;;;;;;;;;;5019604;28;20592;-70
2021/08/11 03:36:18;;;;;;;21.10;13.15;;;;;;;;;;5005384;28;20672;-70
2021/08/11 03:38:43;;;;;;;19.17;13.65;;;;;;;;;;5020122;28;20283;-70
2021/08/11 03:41:09;;;;;;;18.58;12.88;;;;;;;;;;5015707;28;21697;-70
2021/08/11 03:43:34;;;;;;;19.42;14.23;;;;;;;;;;5021891;28;20203;-70
2021/08/11 03:45:59;;;;;;;22.25;13.90;;;;;;;;;;5019125;28;20261;-70
2021/08/11 03:48:24;;;;;;;22.90;15.52;;;;;;;;;;5020235;28;20261;-70
2021/08/11 03:50:50;;;;;;;23.42;15.05;;;;;;;;;;5023147;28;20618;-70
2021/08/11 03:53:15;;;;;;;20.02;14.30;;;;;;;;;;5015625;28;20190;-70
2021/08/11 03:55:40;;;;;;;20.08;13.60;;;;;;;;;;5022854;28;20182;-70
2021/08/11 03:58:06;;;;;;;20.88;13.82;;;;;;;;;;5010021;28;20248;-70
2021/08/11 04:00:31;;;;;;;20.23;14.60;;;;;;;;;;5016242;28;20652;-70
2021/08/11 04:02:57;;;;;;;22.77;14.43;;;;;;;;;;5010619;28;20209;-70
2021/08/11 04:05:22;;;;;;;22.85;15.75;;;;;;;;;;5017080;28;20538;-70
2021/08/11 04:07:47;;;;;;;24.73;15.05;;;;;;;;;;5015930;28;20248;-70
2021/08/11 04:10:13;;;;;;;23.17;15.35;;;;;;;;;;5018232;28;20222;-70
2021/08/11 04:12:38;;;;;;;26.30;16.63;;;;;;;;;;5019002;28;20189;-70
2021/08/11 04:15:06;;;;;;;27.77;16.58;;;;;;;;;;5019129;28;20189;-70
2021/08/11 04:17:31;;;;;;;25.60;15.43;;;;;;;;;;5021638;28;20186;-70
2021/08/11 04:19:56;;;;;;;22.13;15.75;;;;;;;;;;5013907;28;20256;-70
2021/08/11 04:22:22;;;;;;;21.40;15.20;;;;;;;;;;5025646;28;20185;-70
2021/08/11 04:24:47;;;;;;;21.33;14.88;;;;;;;;;;5010228;28;20240;-70
2021/08/11 04:27:13;;;;;;;20.90;15.52;;;;;;;;;;5027543;28;20566;-70
2021/08/11 04:29:38;;;;;;;21.60;14.63;;;;;;;;;;5009509;28;20198;-70
2021/08/11 04:32:04;;;;;;;22.42;15.68;;;;;;;;;;5021838;28;20277;-70
2021/08/11 04:34:29;;;;;;;20.42;14.93;;;;;;;;;;5010568;28;20194;-70
2021/08/11 04:36:56;;;;;;;21.30;15.90;;;;;;;;;;5023092;28;20181;-70
2021/08/11 04:39:21;;;;;;;21.00;16.85;;;;;;;;;;5011476;28;20209;-70
2021/08/11 04:41:46;;;;;;;21.23;17.17;;;;;;;;;;5016832;28;20179;-70
2021/08/11 04:44:12;;;;;;;19.52;15.68;;;;;;;;;;5008315;28;20213;-70
2021/08/11 04:46:38;;;;;;;17.95;15.77;;;;;;;;;;5016507;28;20190;-70
2021/08/11 04:49:04;;;;;;;19.60;16.60;;;;;;;;;;5016927;28;20199;-70
2021/08/11 04:51:29;;;;;;;20.63;16.35;;;;;;;;;;5005746;28;20236;-70
2021/08/11 04:53:54;;;;;;;22.67;16.90;;;;;;;;;;5018486;28;20265;-70
2021/08/11 04:56:20;;;;;;;19.40;16.27;;;;;;;;;;5008413;28;20186;-70
2021/08/11 04:58:45;;;;;;;18.55;16.23;;;;;;;;;;5015855;28;20214;-70
2021/08/11 05:01:10;;;;;;;21.13;16.38;;;;;;;;;;5037097;28;20226;-69
2021/08/11 05:03:36;;;;;;;19.75;17.25;;;;;;;;;;5021185;28;20214;-70
2021/08/11 05:06:03;;;;;;;20.98;18.67;;;;;;;;;;5011616;28;20186;-69
2021/08/11 05:08:28;;;;;;;19.38;17.25;;;;;;;;;;5017187;28;20186;-69
2021/08/11 05:10:53;;;;;;;24.90;18.73;;;;;;;;;;5013072;28;20680;-69
2021/08/11 05:13:19;;;;;;;24.00;19.15;;;;;;;;;;5015194;28;20719;-69
2021/08/11 05:15:44;;;;;;;22.05;18.27;;;;;;;;;;5016341;28;20215;-69
2021/08/11 05:18:11;;;;;;;21.38;18.63;;;;;;;;;;5013032;28;20187;-69
2021/08/11 05:20:37;;;;;;;24.02;17.92;;;;;;;;;;5048985;28;20186;-69
2021/08/11 05:23:02;;;;;;;20.98;18.02;;;;;;;;;;5013676;28;20222;-69
2021/08/11 05:25:27;;;;;;;21.25;17.15;;;;;;;;;;5020519;28;20193;-69
2021/08/11 05:27:53;;;;;;;20.25;17.27;;;;;;;;;;4317994;28;10000873;-69
2021/08/11 05:30:18;;;;;;;21.85;17.23;;;;;;;;;;5022588;28;20667;-69
2021/08/11 05:32:43;;;;;;;18.83;16.73;;;;;;;;;;5011920;28;20515;-69
2021/08/11 05:35:09;;;;;;;20.65;17.33;;;;;;;;;;5025808;28;20272;-69
2021/08/11 05:37:34;;;;;;;19.17;17.08;;;;;;;;;;5012831;28;20194;-70
2021/08/11 05:40:00;;;;;;;17.75;15.65;;;;;;;;;;5023197;28;20225;-70
2021/08/11 05:42:25;;;;;;;19.90;16.90;;;;;;;;;;5012000;28;20193;-71
2021/08/11 05:44:50;;;;;;;18.95;16.90;;;;;;;;;;5028053;28;20539;-70
2021/08/11 05:47:16;;;;;;;20.52;16.42;;;;;;;;;;5016856;28;20301;-70
2021/08/11 05:49:41;;;;;;;20.40;17.40;;;;;;;;;;5015800;28;20228;-70
2021/08/11 05:52:07;;;;;;;21.73;18.25;;;;;;;;;;5017797;28;20250;-71
2021/08/11 05:54:38;;;;;;;21.27;18.15;;;;;;;;;;5015232;28;21296;-70
2021/08/11 05:57:04;;;;;;;21.90;19.20;;;;;;;;;;5014072;28;20190;-70
2021/08/11 05:59:29;;;;;;;22.33;19.02;;;;;;;;;;5013126;28;20214;-70
2021/08/11 06:01:55;;;;;;;24.02;19.33;;;;;;;;;;5016458;28;20268;-70
2021/08/11 06:04:22;;;;;;;24.23;19.67;;;;;;;;;;5015291;28;20210;-70
2021/08/11 06:06:49;;;;;;;23.50;18.77;;;;;;;;;;5018390;28;20696;-70
2021/08/11 06:09:14;;;;;;;23.92;20.10;;;;;;;;;;5010374;28;20187;-70
2021/08/11 06:11:40;;;;;;;26.63;20.80;;;;;;;;;;5016770;28;20645;-70
2021/08/11 06:14:05;;;;;;;24.30;20.55;;;;;;;;;;5009479;28;20186;-70
2021/08/11 06:16:30;;;;;;;22.70;18.60;;;;;;;;;;5015650;28;20197;-70
2021/08/11 06:18:57;;;;;;;28.75;21.52;;;;;;;;;;5014917;28;20293;-70
2021/08/11 06:21:24;;;;;;;26.60;21.98;;;;;;;;;;5013203;28;20547;-70
2021/08/11 06:23:51;;;;;;;25.42;21.25;;;;;;;;;;5019327;28;20301;-69
2021/08/11 06:26:17;;;;;;;26.05;21.33;;;;;;;;;;5007081;28;20197;-69
2021/08/11 06:28:42;;;;;;;27.70;21.90;;;;;;;;;;5020672;28;20202;-69
2021/08/11 06:31:08;;;;;;;25.70;21.58;;;;;;;;;;5009021;28;20241;-69
2021/08/11 06:33:33;;;;;;;24.27;19.90;;;;;;;;;;5021656;28;20581;-69
2021/08/11 06:35:58;;;;;;;30.17;22.65;;;;;;;;;;5008335;28;20221;-70
2021/08/11 06:38:24;;;;;;;30.75;24.00;;;;;;;;;;5021603;28;20277;-69
2021/08/11 06:40:49;;;;;;;30.20;23.52;;;;;;;;;;5008553;28;20265;-69
2021/08/11 06:43:15;;;;;;;26.23;22.10;;;;;;;;;;5020991;28;20668;-69
2021/08/11 06:45:40;;;;;;;29.83;22.38;;;;;;;;;;5009911;28;20592;-69
2021/08/11 06:48:05;;;;;;;29.58;24.73;;;;;;;;;;5018680;28;20198;-70
2021/08/11 06:50:31;;;;;;;27.02;21.42;;;;;;;;;;5018791;28;20189;-69
2021/08/11 06:52:56;;;;;;;27.60;21.80;;;;;;;;;;5015391;28;20264;-69
2021/08/11 06:55:21;;;;;;;30.48;22.05;;;;;;;;;;5014436;28;20712;-69
2021/08/11 06:57:49;;;;;;;25.58;21.02;;;;;;;;;;5012521;28;20229;-69
2021/08/11 07:00:15;;;;;;;29.13;21.92;;;;;;;;;;5020460;28;20225;-70
2021/08/11 07:02:40;;;;;;;30.10;22.08;;;;;;;;;;5013973;28;20198;-69
2021/08/11 07:05:07;;;;;;;28.05;21.92;;;;;;;;;;5019302;28;20194;-69
2021/08/11 07:07:32;;;;;;;26.17;21.60;;;;;;;;;;5011245;28;20186;-69
2021/08/11 07:09:58;;;;;;;26.33;19.63;;;;;;;;;;5018957;28;20236;-69
2021/08/11 07:12:23;;;;;;;24.85;17.85;;;;;;;;;;5016212;28;20264;-70
2021/08/11 07:14:49;;;;;;;22.42;17.83;;;;;;;;;;5019855;28;20594;-70
2021/08/11 07:17:15;;;;;;;22.92;16.75;;;;;;;;;;5014656;28;20182;-70
2021/08/11 07:19:40;;;;;;;21.23;18.05;;;;;;;;;;5019542;28;20197;-71
2021/08/11 07:22:08;;;;;;;21.40;17.58;;;;;;;;;;5025924;28;20170;-72
2021/08/11 07:24:33;;;;;;;21.02;15.95;;;;;;;;;;5008002;28;20232;-71
2021/08/11 07:26:59;;;;;;;20.33;16.20;;;;;;;;;;5022670;28;20186;-71
2021/08/11 07:29:24;;;;;;;18.90;15.98;;;;;;;;;;5009714;28;20194;-71
2021/08/11 07:31:49;;;;;;;20.05;15.23;;;;;;;;;;5020364;28;20187;-71
2021/08/11 07:34:15;;;;;;;20.05;14.55;;;;;;;;;;5010154;28;20247;-71
2021/08/11 07:36:40;;;;;;;18.42;14.80;;;;;;;;;;5024249;28;20194;-71
2021/08/11 07:39:06;;;;;;;18.77;14.38;;;;;;;;;;5011922;28;20178;-72
2021/08/11 07:41:31;;;;;;;16.75;14.82;;;;;;;;;;5018461;28;20678;-72
2021/08/11 07:43:56;;;;;;;21.13;13.57;;;;;;;;;;5016710;28;20199;-72
2021/08/11 07:46:24;;;;;;;18.73;13.55;;;;;;;;;;5008901;28;20439;-71
2021/08/11 07:48:50;;;;;;;15.25;12.90;;;;;;;;;;5010134;28;20700;-70
2021/08/11 07:51:15;;;;;;;17.13;13.10;;;;;;;;;;5017303;28;20186;-70
2021/08/11 07:53:40;;;;;;;16.55;12.05;;;;;;;;;;5037908;28;20182;-71
2021/08/11 07:56:06;;;;;;;16.00;12.52;;;;;;;;;;5011004;28;20256;-71
2021/08/11 07:58:33;;;;;;;14.25;12.68;;;;;;;;;;5030857;28;20217;-71
2021/08/11 08:00:58;;;;;;;15.60;11.80;;;;;;;;;;5033660;28;20691;-70
2021/08/11 08:03:23;;;;;;;15.18;11.50;;;;;;;;;;5022262;28;20194;-70
2021/08/11 08:05:49;;;;;;;18.73;13.43;;;;;;;;;;5005633;28;20182;-71
2021/08/11 08:08:14;;;;;;;16.08;13.43;;;;;;;;;;5023568;28;20185;-71
2021/08/11 08:10:39;;;;;;;19.65;12.82;;;;;;;;;;5005307;28;20198;-71
2021/08/11 08:13:05;;;;;;;16.23;12.98;;;;;;;;;;5018651;28;20174;-70
2021/08/11 08:15:30;;;;;;;19.15;13.85;;;;;;;;;;5005571;28;20191;-70
2021/08/11 08:17:56;;;;;;;17.20;14.35;;;;;;;;;;5020190;28;20218;-70
2021/08/11 08:20:21;;;;;;;18.02;14.00;;;;;;;;;;5013055;28;20194;-71
2021/08/11 08:22:48;;;;;;;16.75;12.75;;;;;;;;;;5019307;28;20185;-70
2021/08/11 08:25:20;;;;;;;16.88;13.80;;;;;;;;;;5016455;28;20190;-70
2021/08/11 08:27:45;;;;;;;17.38;13.90;;;;;;;;;;5007386;28;20198;-71
2021/08/11 08:30:11;;;;;;;19.80;13.70;;;;;;;;;;5010977;28;20186;-70
2021/08/11 08:32:36;;;;;;;16.88;14.18;;;;;;;;;;5008944;28;20669;-70
2021/08/11 08:35:02;;;;;;;17.75;13.80;;;;;;;;;;5013879;28;20248;-70
2021/08/11 08:37:30;;;;;;;17.35;13.68;;;;;;;;;;5010381;28;20186;-71
2021/08/11 08:39:56;;;;;;;15.40;12.80;;;;;;;;;;5018937;28;20202;-70
2021/08/11 08:42:21;;;;;;;19.13;13.18;;;;;;;;;;5009489;28;20174;-71
2021/08/11 08:44:46;;;;;;;15.57;12.80;;;;;;;;;;5018437;28;20218;-71
2021/08/11 08:47:13;;;;;;;16.08;12.93;;;;;;;;;;5012123;28;20190;-71
2021/08/11 08:49:39;;;;;;;15.52;12.93;;;;;;;;;;5017020;28;20216;-68
2021/08/11 08:52:05;;;;;;;13.95;12.43;;;;;;;;;;5013756;28;20182;-70
2021/08/11 08:54:34;;;;;;;14.30;12.68;;;;;;;;;;5017043;28;20214;-73
2021/08/11 08:56:59;;;;;;;16.65;13.07;;;;;;;;;;5017884;28;20182;-70
2021/08/11 08:59:25;;;;;;;17.58;13.35;;;;;;;;;;5010369;28;20578;-70
2021/08/11 09:01:50;;;;;;;14.88;12.10;;;;;;;;;;5023363;28;20586;-70
2021/08/11 09:04:15;;;;;;;16.90;12.90;;;;;;;;;;5010149;28;20209;-69
2021/08/11 09:06:41;;;;;;;14.38;11.85;;;;;;;;;;5024163;28;20182;-69
2021/08/11 09:09:08;;;;;;;16.88;12.27;;;;;;;;;;5015448;28;20193;-69
2021/08/11 09:11:35;;;;;;;15.07;12.10;;;;;;;;;;5021810;28;20874;-70
2021/08/11 09:14:27;;;;;;;15.80;12.15;;;;;;;;;;5014316;28;20193;-69
2021/08/11 09:16:55;;;;;;;17.05;12.68;;;;;;;;;;5021004;28;20220;-68
2021/08/11 09:19:21;;;;;;;17.60;12.95;;;;;;;;;;5011095;28;20194;-70
2021/08/11 09:21:58;;;;;;;15.90;11.65;;;;;;;;;;5030035;28;20622;-69
2021/08/11 09:24:25;;;;;;;16.35;12.77;;;;;;;;;;5010164;28;20206;-69
2021/08/11 09:26:51;;;;;;;15.35;11.93;;;;;;;;;;5021745;28;20175;-70
2021/08/11 09:29:18;;;;;;;14.45;12.23;;;;;;;;;;5014414;28;20190;-69
2021/08/11 09:31:44;;;;;;;15.30;12.15;;;;;;;;;;5023073;28;20194;-70
2021/08/11 09:34:11;;;;;;;17.10;12.77;;;;;;;;;;5011404;28;20193;-69
2021/08/11 09:36:51;;;;;;;17.27;13.00;;;;;;;;;;5026518;28;20189;-69
2021/08/11 09:39:18;;;;;;;15.77;12.32;;;;;;;;;;5016500;28;20202;-69
2021/08/11 09:42:04;;;;;;;16.48;12.75;;;;;;;;;;5022694;28;20278;-68
2021/08/11 09:44:30;;;;;;;18.20;13.90;;;;;;;;;;5016799;28;20209;-70
2021/08/11 09:47:14;;;;;;;15.90;12.45;;;;;;;;;;5029260;28;20202;-69
2021/08/11 09:49:40;;;;;;;15.35;12.27;;;;;;;;;;5020669;28;20182;-70
2021/08/11 09:52:08;;;;;;;14.38;12.70;;;;;;;;;;5018912;28;20197;-68
2021/08/11 09:54:33;;;;;;;14.77;12.38;;;;;;;;;;5019563;28;20182;-70
2021/08/11 09:56:59;;;;;;;15.13;12.23;;;;;;;;;;5014059;28;20201;-69
2021/08/11 09:59:25;;;;;;;14.65;11.95;;;;;;;;;;5026306;28;20205;-68
2021/08/11 10:01:50;;;;;;;16.50;12.20;;;;;;;;;;5018201;28;20191;-70
2021/08/11 10:04:16;;;;;;;17.10;12.35;;;;;;;;;;5020864;28;20193;-69
2021/08/11 10:06:43;;;;;;;16.65;12.50;;;;;;;;;;5015997;28;20198;-68
2021/08/11 10:09:20;;;;;;;16.15;12.02;;;;;;;;;;5020673;28;20217;-68
2021/08/11 10:11:55;;;;;;;13.63;11.98;;;;;;;;;;5019324;28;20194;-70
2021/08/11 10:14:26;;;;;;;16.10;13.02;;;;;;;;;;5025256;28;20185;-69
2021/08/11 10:16:53;;;;;;;15.57;12.52;;;;;;;;;;5017034;28;20747;-70
2021/08/11 10:19:22;;;;;;;19.73;13.45;;;;;;;;;;5021473;28;20643;-69
2021/08/11 10:21:55;;;;;;;19.02;15.13;;;;;;;;;;5016346;28;20190;-69
2021/08/11 10:24:21;;;;;;;18.45;15.75;;;;;;;;;;5023271;28;20275;-68
2021/08/11 10:26:50;;;;;;;17.10;13.98;;;;;;;;;;5014313;28;20190;-68
2021/08/11 10:29:16;;;;;;;19.15;15.55;;;;;;;;;;5030155;28;20267;-69
2021/08/11 10:31:42;;;;;;;18.98;15.10;;;;;;;;;;5020608;28;20649;-69
2021/08/11 10:34:11;;;;;;;15.73;13.63;;;;;;;;;;5014608;28;20622;-68
2021/08/11 10:36:39;;;;;;;20.13;15.48;;;;;;;;;;5019170;28;20201;-69
2021/08/11 10:39:05;;;;;;;13.93;12.43;;;;;;;;;;5023429;28;20277;-70
2021/08/11 10:41:32;;;;;;;15.05;12.27;;;;;;;;;;5018925;28;20329;-70
2021/08/11 10:44:02;;;;;;;13.85;12.35;;;;;;;;;;5017051;28;20646;-69
2021/08/11 10:47:00;;;;;;;12.50;11.20;;;;;;;;;;5022131;28;20197;-69
2021/08/11 10:49:28;;;;;;;17.13;14.13;;;;;;;;;;5014734;28;20190;-68
2021/08/11 10:51:58;;;;;;;15.27;12.75;;;;;;;;;;5019232;28;20191;-69
2021/08/11 10:54:25;;;;;;;16.13;12.27;;;;;;;;;;5004331;28;20575;-69
2021/08/11 10:56:55;;;;;;;14.32;12.20;;;;;;;;;;5018544;28;20243;-69
2021/08/11 10:59:24;;;;;;;14.63;12.63;;;;;;;;;;4313019;28;10000739;-69
2021/08/11 11:01:51;;;;;;;15.50;13.27;;;;;;;;;;5026264;28;20657;-71
2021/08/11 11:04:39;;;;;;;15.65;12.75;;;;;;;;;;5009736;28;20221;-69
2021/08/11 11:07:07;;;;;;;13.93;10.80;;;;;;;;;;5024124;28;20265;-69
2021/08/11 11:09:33;;;;;;;12.50;9.07;;;;;;;;;;5015294;28;20705;-70
2021/08/11 11:12:13;;;;;;;12.27;9.23;;;;;;;;;;5025055;28;20265;-70
2021/08/11 11:15:01;;;;;;;11.05;9.05;;;;;;;;;;5014272;28;20179;-71
2021/08/11 11:17:30;;;;;;;10.77;8.57;;;;;;;;;;5029993;28;20716;-70
2021/08/11 11:20:07;;;;;;;10.68;8.82;;;;;;;;;;5013995;28;20592;-70
2021/08/11 11:22:37;;;;;;;9.82;8.73;;;;;;;;;;5024646;28;20174;-69
2021/08/11 11:25:04;;;;;;;11.30;8.93;;;;;;;;;;5007466;28;20210;-70
2021/08/11 11:27:42;;;;;;;9.90;8.20;;;;;;;;;;5019156;28;20265;-71
2021/08/11 11:30:29;;;;;;;9.57;8.25;;;;;;;;;;5011505;28;20612;-70
2021/08/11 11:32:55;;;;;;;8.80;7.90;;;;;;;;;;5016189;28;20190;-70
2021/08/11 11:35:27;;;;;;;10.55;8.40;;;;;;;;;;5013051;28;20196;-70
2021/08/11 11:38:08;;;;;;;10.18;8.02;;;;;;;;;;5017832;28;20646;-69
2021/08/11 11:40:55;;;;;;;8.57;7.45;;;;;;;;;;4663438;28;9999733;-70
2021/08/11 11:43:28;;;;;;;7.55;6.75;;;;;;;;;;5016754;28;20217;-70
2021/08/11 11:45:56;;;;;;;10.30;8.35;;;;;;;;;;5015833;28;20570;-71
2021/08/11 11:48:22;;;;;;;9.50;8.50;;;;;;;;;;5017983;28;20191;-69
2021/08/11 11:50:50;;;;;;;9.73;8.70;;;;;;;;;;5012317;28;20985;-71
2021/08/11 11:53:27;;;;;;;11.57;9.07;;;;;;;;;;5015428;28;20223;-71
2021/08/11 11:55:53;;;;;;;10.52;9.43;;;;;;;;;;5024980;28;20188;-70
2021/08/11 11:58:23;;;;;;;10.43;9.32;;;;;;;;;;5010090;28;20188;-70
2021/08/11 12:00:59;;;;;;;10.18;8.77;;;;;;;;;;5024152;28;20232;-71
2021/08/11 12:03:42;;;;;;;10.20;9.10;;;;;;;;;;5009617;28;20649;-70
2021/08/11 12:06:09;;;;;;;10.48;8.70;;;;;;;;;;5022059;28;20178;-70
2021/08/11 12:08:35;;;;;;;8.20;6.50;;;;;;;;;;5010510;28;20194;-71
2021/08/11 12:11:07;;;;;;;8.23;7.00;;;;;;;;;;5036363;28;20579;-70
2021/08/11 12:13:40;;;;;;;7.63;6.63;;;;;;;;;;5024080;28;20197;-70
2021/08/11 12:16:05;;;;;;;9.45;7.95;;;;;;;;;;5020399;28;20290;-70
2021/08/11 12:18:31;;;;;;;7.53;6.43;;;;;;;;;;5009820;28;20197;-70
2021/08/11 12:21:01;;;;;;;7.20;6.50;;;;;;;;;;5014719;28;20288;-69
2021/08/11 12:23:29;;;;;;;7.75;5.63;;;;;;;;;;5007438;28;20210;-70
2021/08/11 12:26:00;;;;;;;7.28;5.72;;;;;;;;;;5018279;28;20218;-70
2021/08/11 12:28:36;;;;;;;6.07;5.18;;;;;;;;;;5009954;28;20444;-71
2021/08/11 12:31:11;;;;;;;5.78;4.28;;;;;;;;;;5016187;28;20284;-71
2021/08/11 12:33:39;;;;;;;9.52;4.50;;;;;;;;;;5015731;28;20181;-72
2021/08/11 12:36:10;;;;;;;5.78;4.13;;;;;;;;;;5015389;28;20187;-69
2021/08/11 12:38:41;;;;;;;5.30;4.75;;;;;;;;;;5009157;28;20197;-71
2021/08/11 12:41:21;;;;;;;5.65;4.72;;;;;;;;;;5020138;28;20205;-70
2021/08/11 12:43:51;;;;;;;6.03;4.78;;;;;;;;;;5011175;28;20205;-71
2021/08/11 12:46:36;;;;;;;4.90;4.35;;;;;;;;;;5017665;28;20578;-71
2021/08/11 12:49:20;;;;;;;6.45;4.63;;;;;;;;;;5015809;28;20194;-70
2021/08/11 12:52:10;;;;;;;7.70;6.00;;;;;;;;;;5020050;28;20641;-71
2021/08/11 12:54:54;;;;;;;7.72;5.10;;;;;;;;;;5013854;28;20541;-69
2021/08/11 12:57:19;;;;;;;7.28;4.93;;;;;;;;;;5021910;28;20198;-70
2021/08/11 12:59:52;;;;;;;6.55;5.22;;;;;;;;;;5009569;28;20241;-69
2021/08/11 13:02:28;;;;;;;5.10;4.40;;;;;;;;;;5019652;28;20289;-70
2021/08/11 13:05:12;;;;;;;5.88;5.32;;;;;;;;;;5014803;28;20221;-70
2021/08/11 13:07:50;;;;;;;7.75;5.35;;;;;;;;;;5034900;28;20178;-70
2021/08/11 13:10:16;;;;;;;6.07;4.72;;;;;;;;;;5011646;28;20214;-70
2021/08/11 13:12:42;;;;;;;5.93;4.60;;;;;;;;;;5018605;28;20187;-70
2021/08/11 13:15:22;;;;;;;5.03;4.45;;;;;;;;;;5017629;28;20178;-70
2021/08/11 13:17:51;;;;;;;7.30;4.68;;;;;;;;;;5023458;28;20259;-71
2021/08/11 13:20:22;;;;;;;4.78;4.38;;;;;;;;;;4666256;28;10000373;-71
2021/08/11 13:22:54;;;;;;;4.65;4.03;;;;;;;;;;5011461;28;20194;-71
2021/08/11 13:25:21;;;;;;;5.68;4.15;;;;;;;;;;5015382;28;20216;-71
2021/08/11 13:27:48;;;;;;;6.50;4.40;;;;;;;;;;5012151;28;20662;-71
2021/08/11 13:30:15;;;;;;;5.50;4.90;;;;;;;;;;5014162;28;20719;-71
2021/08/11 13:32:40;;;;;;;5.75;4.90;;;;;;;;;;5012223;28;20202;-71
2021/08/11 13:35:07;;;;;;;4.90;4.00;;;;;;;;;;5015950;28;20626;-71
2021/08/11 13:37:32;;;;;;;6.00;3.75;;;;;;;;;;5014192;28;20186;-71
2021/08/11 13:39:58;;;;;;;5.82;3.92;;;;;;;;;;5014333;28;20194;-70
2021/08/11 13:42:24;;;;;;;6.68;3.83;;;;;;;;;;5013604;28;20226;-70
2021/08/11 13:44:50;;;;;;;7.65;4.20;;;;;;;;;;5011275;28;21673;-69
2021/08/11 13:47:17;;;;;;;6.28;4.65;;;;;;;;;;5013041;28;20190;-70
2021/08/11 13:49:42;;;;;;;4.55;3.70;;;;;;;;;;5019463;28;20682;-70
2021/08/11 13:52:07;;;;;;;9.15;5.00;;;;;;;;;;5023887;28;20305;-70
2021/08/11 13:54:33;;;;;;;4.40;3.63;;;;;;;;;;5011821;28;20187;-70
2021/08/11 13:56:58;;;;;;;4.68;4.28;;;;;;;;;;5019332;28;20193;-70
2021/08/11 13:59:23;;;;;;;3.85;3.42;;;;;;;;;;5012035;28;20228;-71
2021/08/11 14:01:48;;;;;;;4.45;3.00;;;;;;;;;;5019101;28;20217;-71
2021/08/11 14:04:14;;;;;;;4.82;3.72;;;;;;;;;;5010797;28;20210;-70
2021/08/11 14:06:39;;;;;;;4.13;3.38;;;;;;;;;;5015606;28;20577;-72
2021/08/11 14:09:06;;;;;;;4.32;2.97;;;;;;;;;;5012272;28;20645;-70
2021/08/11 14:11:32;;;;;;;4.43;3.60;;;;;;;;;;5023761;28;20178;-70
2021/08/11 14:13:57;;;;;;;5.80;3.60;;;;;;;;;;5012964;28;20190;-70
2021/08/11 14:16:24;;;;;;;4.43;3.33;;;;;;;;;;5017541;28;20857;-71
2021/08/11 14:18:49;;;;;;;6.30;3.42;;;;;;;;;;5011007;28;21671;-71
2021/08/11 14:21:14;;;;;;;4.15;3.25;;;;;;;;;;5023257;28;20186;-72
2021/08/11 14:23:40;;;;;;;4.63;2.97;;;;;;;;;;5019883;28;20210;-72
2021/08/11 14:26:05;;;;;;;4.70;4.22;;;;;;;;;;5015995;28;20214;-70